sensor_id;sensor_type;location;lat;lon;timestamp;P1;durP1;ratioP1;P2;durP2;ratioP2
8139;SDS011;4111;50.972;7.072;2023-05-20T00:00:33;4.17;;;1.53;;
8139;SDS011;4111;50.972;7.072;2023-05-20T00:03:00;1.97;;;1.53;;
8139;SDS011;4111;50.972;7.072;2023-05-20T00:05:26;3.17;;;1.93;;
8139;SDS011;4111;50.972;7.072;2023-05-20T00:07:53;1.90;;;1.70;;
8139;SDS011;4111;50.972;7.072;2023-05-20T00:10:19;1.93;;;1.80;;
8139;SDS011;4111;50.972;7.072;2023-05-20T00:12:46;4.47;;;1.73;;
8139;SDS011;4111;50.972;7.072;2023-05-20T00:15:12;2.00;;;1.80;;
8139;SDS011;4111;50.972;7.072;2023-05-20T00:17:39;1.97;;;1.87;;
8139;SDS011;4111;50.972;7.072;2023-05-20T00:20:05;4.23;;;1.90;;
8139;SDS011;4111;50.972;7.072;2023-05-20T00:22:33;3.13;;;1.83;;
8139;SDS011;4111;50.972;7.072;2023-05-20T00:24:59;1.90;;;1.40;;
8139;SDS011;4111;50.972;7.072;2023-05-20T00:27:26;2.20;;;2.00;;
8139;SDS011;4111;50.972;7.072;2023-05-20T00:29:52;5.47;;;1.77;;
8139;SDS011;4111;50.972;7.072;2023-05-20T00:32:19;2.27;;;2.03;;
8139;SDS011;4111;50.972;7.072;2023-05-20T00:34:54;3.13;;;1.80;;
8139;SDS011;4111;50.972;7.072;2023-05-20T00:37:22;3.30;;;1.73;;
8139;SDS011;4111;50.972;7.072;2023-05-20T00:39:49;2.27;;;1.90;;
8139;SDS011;4111;50.972;7.072;2023-05-20T00:42:22;2.40;;;1.40;;
8139;SDS011;4111;50.972;7.072;2023-05-20T00:44:53;1.97;;;1.70;;
8139;SDS011;4111;50.972;7.072;2023-05-20T00:47:28;2.83;;;1.60;;
8139;SDS011;4111;50.972;7.072;2023-05-20T00:49:57;1.80;;;1.70;;
8139;SDS011;4111;50.972;7.072;2023-05-20T00:52:25;2.67;;;1.73;;
8139;SDS011;4111;50.972;7.072;2023-05-20T00:54:55;4.13;;;1.90;;
8139;SDS011;4111;50.972;7.072;2023-05-20T00:57:23;2.90;;;1.87;;
8139;SDS011;4111;50.972;7.072;2023-05-20T00:59:50;1.60;;;1.50;;
8139;SDS011;4111;50.972;7.072;2023-05-20T01:02:17;2.53;;;1.60;;
8139;SDS011;4111;50.972;7.072;2023-05-20T01:04:44;3.07;;;1.70;;
8139;SDS011;4111;50.972;7.072;2023-05-20T01:07:12;1.60;;;1.50;;
8139;SDS011;4111;50.972;7.072;2023-05-20T01:09:41;1.87;;;1.77;;
8139;SDS011;4111;50.972;7.072;2023-05-20T01:14:47;2.70;;;1.73;;
8139;SDS011;4111;50.972;7.072;2023-05-20T01:17:16;3.53;;;1.60;;
8139;SDS011;4111;50.972;7.072;2023-05-20T01:19:46;2.20;;;1.83;;
8139;SDS011;4111;50.972;7.072;2023-05-20T01:22:14;2.00;;;1.80;;
8139;SDS011;4111;50.972;7.072;2023-05-20T01:24:41;2.30;;;1.40;;
8139;SDS011;4111;50.972;7.072;2023-05-20T01:27:10;2.00;;;1.73;;
8139;SDS011;4111;50.972;7.072;2023-05-20T01:29:39;1.70;;;1.60;;
8139;SDS011;4111;50.972;7.072;2023-05-20T01:32:07;1.77;;;1.67;;
8139;SDS011;4111;50.972;7.072;2023-05-20T01:34:37;2.63;;;1.37;;
8139;SDS011;4111;50.972;7.072;2023-05-20T01:37:06;1.90;;;1.80;;
8139;SDS011;4111;50.972;7.072;2023-05-20T01:39:35;2.07;;;1.87;;
8139;SDS011;4111;50.972;7.072;2023-05-20T01:42:03;2.27;;;1.57;;
8139;SDS011;4111;50.972;7.072;2023-05-20T01:44:31;2.77;;;1.97;;
8139;SDS011;4111;50.972;7.072;2023-05-20T01:46:58;1.87;;;1.60;;
8139;SDS011;4111;50.972;7.072;2023-05-20T01:49:26;7.43;;;1.70;;
8139;SDS011;4111;50.972;7.072;2023-05-20T01:51:53;3.23;;;1.80;;
8139;SDS011;4111;50.972;7.072;2023-05-20T01:54:20;3.40;;;1.60;;
8139;SDS011;4111;50.972;7.072;2023-05-20T01:56:46;1.77;;;1.63;;
8139;SDS011;4111;50.972;7.072;2023-05-20T01:59:13;2.70;;;1.50;;
8139;SDS011;4111;50.972;7.072;2023-05-20T02:01:40;3.80;;;1.90;;
8139;SDS011;4111;50.972;7.072;2023-05-20T02:04:06;2.47;;;1.73;;
8139;SDS011;4111;50.972;7.072;2023-05-20T02:06:32;1.97;;;1.80;;
8139;SDS011;4111;50.972;7.072;2023-05-20T02:08:59;3.87;;;1.70;;
8139;SDS011;4111;50.972;7.072;2023-05-20T02:11:25;2.60;;;1.90;;
8139;SDS011;4111;50.972;7.072;2023-05-20T02:13:52;3.33;;;1.50;;
8139;SDS011;4111;50.972;7.072;2023-05-20T02:16:19;2.17;;;1.70;;
8139;SDS011;4111;50.972;7.072;2023-05-20T02:18:45;4.10;;;1.60;;
8139;SDS011;4111;50.972;7.072;2023-05-20T02:21:12;1.43;;;1.33;;
8139;SDS011;4111;50.972;7.072;2023-05-20T02:23:38;2.20;;;1.70;;
8139;SDS011;4111;50.972;7.072;2023-05-20T02:26:04;3.47;;;2.73;;
8139;SDS011;4111;50.972;7.072;2023-05-20T02:28:31;1.83;;;1.43;;
8139;SDS011;4111;50.972;7.072;2023-05-20T02:30:58;2.50;;;2.00;;
8139;SDS011;4111;50.972;7.072;2023-05-20T02:33:25;4.83;;;1.83;;
8139;SDS011;4111;50.972;7.072;2023-05-20T02:35:54;2.00;;;1.80;;
8139;SDS011;4111;50.972;7.072;2023-05-20T02:38:20;2.47;;;1.87;;
8139;SDS011;4111;50.972;7.072;2023-05-20T02:40:47;1.93;;;1.80;;
8139;SDS011;4111;50.972;7.072;2023-05-20T02:43:13;2.83;;;2.17;;
8139;SDS011;4111;50.972;7.072;2023-05-20T02:45:39;3.50;;;1.80;;
8139;SDS011;4111;50.972;7.072;2023-05-20T02:48:06;2.10;;;1.90;;
8139;SDS011;4111;50.972;7.072;2023-05-20T02:50:33;5.87;;;1.70;;
8139;SDS011;4111;50.972;7.072;2023-05-20T02:52:59;5.47;;;2.37;;
8139;SDS011;4111;50.972;7.072;2023-05-20T02:55:26;2.00;;;1.90;;
8139;SDS011;4111;50.972;7.072;2023-05-20T02:57:53;2.83;;;1.97;;
8139;SDS011;4111;50.972;7.072;2023-05-20T03:00:20;5.33;;;2.20;;
8139;SDS011;4111;50.972;7.072;2023-05-20T03:02:48;2.03;;;1.80;;
8139;SDS011;4111;50.972;7.072;2023-05-20T03:05:14;2.53;;;1.93;;
8139;SDS011;4111;50.972;7.072;2023-05-20T03:07:41;2.70;;;2.00;;
8139;SDS011;4111;50.972;7.072;2023-05-20T03:10:07;2.27;;;1.93;;
8139;SDS011;4111;50.972;7.072;2023-05-20T03:12:35;3.53;;;2.17;;
8139;SDS011;4111;50.972;7.072;2023-05-20T03:15:02;1.87;;;1.77;;
8139;SDS011;4111;50.972;7.072;2023-05-20T03:17:28;3.60;;;1.80;;
8139;SDS011;4111;50.972;7.072;2023-05-20T03:19:55;4.73;;;1.60;;
8139;SDS011;4111;50.972;7.072;2023-05-20T03:22:22;4.83;;;2.10;;
8139;SDS011;4111;50.972;7.072;2023-05-20T03:24:48;3.60;;;1.97;;
8139;SDS011;4111;50.972;7.072;2023-05-20T03:27:14;5.30;;;2.10;;
8139;SDS011;4111;50.972;7.072;2023-05-20T03:29:41;5.30;;;2.13;;
8139;SDS011;4111;50.972;7.072;2023-05-20T03:32:07;4.30;;;1.93;;
8139;SDS011;4111;50.972;7.072;2023-05-20T03:34:36;2.90;;;1.90;;
8139;SDS011;4111;50.972;7.072;2023-05-20T03:37:03;2.13;;;1.93;;
8139;SDS011;4111;50.972;7.072;2023-05-20T03:39:29;5.10;;;2.17;;
8139;SDS011;4111;50.972;7.072;2023-05-20T03:41:56;4.00;;;2.33;;
8139;SDS011;4111;50.972;7.072;2023-05-20T03:44:22;2.67;;;1.97;;
8139;SDS011;4111;50.972;7.072;2023-05-20T03:46:49;3.43;;;2.37;;
8139;SDS011;4111;50.972;7.072;2023-05-20T03:49:15;2.50;;;2.30;;
8139;SDS011;4111;50.972;7.072;2023-05-20T03:51:42;3.83;;;2.00;;
8139;SDS011;4111;50.972;7.072;2023-05-20T03:54:08;2.30;;;2.10;;
8139;SDS011;4111;50.972;7.072;2023-05-20T03:56:35;2.90;;;2.10;;
8139;SDS011;4111;50.972;7.072;2023-05-20T03:59:01;4.57;;;2.20;;
8139;SDS011;4111;50.972;7.072;2023-05-20T04:01:28;3.73;;;2.43;;
8139;SDS011;4111;50.972;7.072;2023-05-20T04:03:54;2.40;;;2.00;;
8139;SDS011;4111;50.972;7.072;2023-05-20T04:06:21;2.83;;;1.90;;
8139;SDS011;4111;50.972;7.072;2023-05-20T04:08:47;3.00;;;1.90;;
8139;SDS011;4111;50.972;7.072;2023-05-20T04:11:15;5.43;;;2.27;;
8139;SDS011;4111;50.972;7.072;2023-05-20T04:13:42;3.10;;;1.87;;
8139;SDS011;4111;50.972;7.072;2023-05-20T04:16:08;2.23;;;1.93;;
8139;SDS011;4111;50.972;7.072;2023-05-20T04:18:35;3.63;;;2.20;;
8139;SDS011;4111;50.972;7.072;2023-05-20T04:21:04;3.83;;;2.00;;
8139;SDS011;4111;50.972;7.072;2023-05-20T04:23:30;3.87;;;2.10;;
8139;SDS011;4111;50.972;7.072;2023-05-20T04:25:58;4.23;;;2.20;;
8139;SDS011;4111;50.972;7.072;2023-05-20T04:28:27;2.80;;;2.63;;
8139;SDS011;4111;50.972;7.072;2023-05-20T04:30:59;1.93;;;1.83;;
8139;SDS011;4111;50.972;7.072;2023-05-20T04:33:29;3.83;;;2.20;;
8139;SDS011;4111;50.972;7.072;2023-05-20T04:35:58;2.90;;;2.00;;
8139;SDS011;4111;50.972;7.072;2023-05-20T04:38:24;4.07;;;2.07;;
8139;SDS011;4111;50.972;7.072;2023-05-20T04:40:55;2.40;;;2.20;;
8139;SDS011;4111;50.972;7.072;2023-05-20T04:43:23;2.63;;;2.43;;
8139;SDS011;4111;50.972;7.072;2023-05-20T04:45:51;2.80;;;2.13;;
8139;SDS011;4111;50.972;7.072;2023-05-20T04:48:20;2.60;;;2.10;;
8139;SDS011;4111;50.972;7.072;2023-05-20T04:50:47;2.73;;;2.10;;
8139;SDS011;4111;50.972;7.072;2023-05-20T04:53:15;2.57;;;2.33;;
8139;SDS011;4111;50.972;7.072;2023-05-20T04:55:42;2.53;;;2.30;;
8139;SDS011;4111;50.972;7.072;2023-05-20T04:58:10;4.20;;;2.23;;
8139;SDS011;4111;50.972;7.072;2023-05-20T05:00:40;3.67;;;2.87;;
8139;SDS011;4111;50.972;7.072;2023-05-20T05:03:08;2.97;;;2.63;;
8139;SDS011;4111;50.972;7.072;2023-05-20T05:05:35;4.07;;;2.40;;
8139;SDS011;4111;50.972;7.072;2023-05-20T05:08:04;2.80;;;2.60;;
8139;SDS011;4111;50.972;7.072;2023-05-20T05:10:32;4.63;;;2.50;;
8139;SDS011;4111;50.972;7.072;2023-05-20T05:12:58;3.33;;;2.57;;
8139;SDS011;4111;50.972;7.072;2023-05-20T05:15:25;3.20;;;2.73;;
8139;SDS011;4111;50.972;7.072;2023-05-20T05:17:52;3.13;;;2.80;;
8139;SDS011;4111;50.972;7.072;2023-05-20T05:20:19;5.47;;;2.70;;
8139;SDS011;4111;50.972;7.072;2023-05-20T05:22:45;2.97;;;2.57;;
8139;SDS011;4111;50.972;7.072;2023-05-20T05:25:12;4.63;;;2.63;;
8139;SDS011;4111;50.972;7.072;2023-05-20T05:27:39;3.93;;;2.90;;
8139;SDS011;4111;50.972;7.072;2023-05-20T05:30:05;3.40;;;2.90;;
8139;SDS011;4111;50.972;7.072;2023-05-20T05:32:33;5.67;;;2.87;;
8139;SDS011;4111;50.972;7.072;2023-05-20T05:35:00;2.67;;;2.47;;
8139;SDS011;4111;50.972;7.072;2023-05-20T05:37:26;3.50;;;3.00;;
8139;SDS011;4111;50.972;7.072;2023-05-20T05:39:53;2.50;;;2.30;;
8139;SDS011;4111;50.972;7.072;2023-05-20T05:42:20;2.80;;;2.60;;
8139;SDS011;4111;50.972;7.072;2023-05-20T05:44:47;3.20;;;2.83;;
8139;SDS011;4111;50.972;7.072;2023-05-20T05:47:14;3.93;;;2.60;;
8139;SDS011;4111;50.972;7.072;2023-05-20T05:49:41;3.37;;;2.53;;
8139;SDS011;4111;50.972;7.072;2023-05-20T05:52:07;2.67;;;2.33;;
8139;SDS011;4111;50.972;7.072;2023-05-20T05:54:34;4.70;;;2.20;;
8139;SDS011;4111;50.972;7.072;2023-05-20T05:57:00;2.37;;;2.17;;
8139;SDS011;4111;50.972;7.072;2023-05-20T05:59:26;4.33;;;2.53;;
8139;SDS011;4111;50.972;7.072;2023-05-20T06:01:53;4.23;;;2.60;;
8139;SDS011;4111;50.972;7.072;2023-05-20T06:04:19;3.80;;;2.77;;
8139;SDS011;4111;50.972;7.072;2023-05-20T06:06:46;4.72;;;2.92;;
8139;SDS011;4111;50.972;7.072;2023-05-20T06:09:13;3.23;;;2.93;;
8139;SDS011;4111;50.972;7.072;2023-05-20T06:11:40;4.93;;;3.13;;
8139;SDS011;4111;50.972;7.072;2023-05-20T06:14:07;4.40;;;2.53;;
8139;SDS011;4111;50.972;7.072;2023-05-20T06:16:33;3.33;;;3.03;;
8139;SDS011;4111;50.972;7.072;2023-05-20T06:19:00;3.70;;;3.10;;
8139;SDS011;4111;50.972;7.072;2023-05-20T06:21:28;6.67;;;2.70;;
8139;SDS011;4111;50.972;7.072;2023-05-20T06:23:56;5.00;;;3.27;;
8139;SDS011;4111;50.972;7.072;2023-05-20T06:26:23;4.27;;;2.73;;
8139;SDS011;4111;50.972;7.072;2023-05-20T06:28:49;6.23;;;2.63;;
8139;SDS011;4111;50.972;7.072;2023-05-20T06:31:16;5.80;;;3.10;;
8139;SDS011;4111;50.972;7.072;2023-05-20T06:33:43;5.77;;;2.93;;
8139;SDS011;4111;50.972;7.072;2023-05-20T06:36:09;6.03;;;2.70;;
8139;SDS011;4111;50.972;7.072;2023-05-20T06:38:36;3.87;;;2.77;;
8139;SDS011;4111;50.972;7.072;2023-05-20T06:41:03;2.57;;;2.37;;
8139;SDS011;4111;50.972;7.072;2023-05-20T06:43:30;3.60;;;2.70;;
8139;SDS011;4111;50.972;7.072;2023-05-20T06:45:57;5.53;;;2.53;;
8139;SDS011;4111;50.972;7.072;2023-05-20T06:48:24;5.80;;;2.83;;
8139;SDS011;4111;50.972;7.072;2023-05-20T06:50:50;4.77;;;2.67;;
8139;SDS011;4111;50.972;7.072;2023-05-20T06:53:17;3.07;;;2.73;;
8139;SDS011;4111;50.972;7.072;2023-05-20T06:55:43;5.97;;;2.80;;
8139;SDS011;4111;50.972;7.072;2023-05-20T06:58:10;3.40;;;3.10;;
8139;SDS011;4111;50.972;7.072;2023-05-20T07:00:36;3.80;;;2.80;;
8139;SDS011;4111;50.972;7.072;2023-05-20T07:03:03;3.50;;;2.70;;
8139;SDS011;4111;50.972;7.072;2023-05-20T07:05:29;5.30;;;2.90;;
8139;SDS011;4111;50.972;7.072;2023-05-20T07:07:57;5.47;;;2.80;;
8139;SDS011;4111;50.972;7.072;2023-05-20T07:10:23;3.00;;;2.53;;
8139;SDS011;4111;50.972;7.072;2023-05-20T07:12:50;5.73;;;2.90;;
8139;SDS011;4111;50.972;7.072;2023-05-20T07:15:16;4.80;;;2.70;;
8139;SDS011;4111;50.972;7.072;2023-05-20T07:17:43;3.87;;;3.03;;
8139;SDS011;4111;50.972;7.072;2023-05-20T07:20:09;2.90;;;2.63;;
8139;SDS011;4111;50.972;7.072;2023-05-20T07:22:36;5.20;;;2.67;;
8139;SDS011;4111;50.972;7.072;2023-05-20T07:25:02;2.93;;;2.73;;
8139;SDS011;4111;50.972;7.072;2023-05-20T07:27:29;5.07;;;3.43;;
8139;SDS011;4111;50.972;7.072;2023-05-20T07:29:56;3.33;;;3.03;;
8139;SDS011;4111;50.972;7.072;2023-05-20T07:32:22;3.23;;;3.03;;
8139;SDS011;4111;50.972;7.072;2023-05-20T07:34:48;3.10;;;2.90;;
8139;SDS011;4111;50.972;7.072;2023-05-20T07:37:15;2.97;;;2.73;;
8139;SDS011;4111;50.972;7.072;2023-05-20T07:39:41;2.90;;;2.70;;
8139;SDS011;4111;50.972;7.072;2023-05-20T07:42:08;3.43;;;3.13;;
8139;SDS011;4111;50.972;7.072;2023-05-20T07:44:34;3.80;;;2.70;;
8139;SDS011;4111;50.972;7.072;2023-05-20T07:47:01;5.10;;;2.50;;
8139;SDS011;4111;50.972;7.072;2023-05-20T07:49:28;4.73;;;2.97;;
8139;SDS011;4111;50.972;7.072;2023-05-20T07:51:55;5.53;;;3.27;;
8139;SDS011;4111;50.972;7.072;2023-05-20T07:54:21;2.80;;;2.60;;
8139;SDS011;4111;50.972;7.072;2023-05-20T07:56:48;5.17;;;3.13;;
8139;SDS011;4111;50.972;7.072;2023-05-20T07:59:15;3.97;;;3.23;;
8139;SDS011;4111;50.972;7.072;2023-05-20T08:01:41;5.13;;;2.87;;
8139;SDS011;4111;50.972;7.072;2023-05-20T08:04:08;4.63;;;3.00;;
8139;SDS011;4111;50.972;7.072;2023-05-20T08:06:34;4.10;;;2.93;;
8139;SDS011;4111;50.972;7.072;2023-05-20T08:09:01;6.47;;;2.67;;
8139;SDS011;4111;50.972;7.072;2023-05-20T08:11:28;3.13;;;2.80;;
8139;SDS011;4111;50.972;7.072;2023-05-20T08:13:54;6.03;;;3.00;;
8139;SDS011;4111;50.972;7.072;2023-05-20T08:16:21;3.23;;;2.93;;
8139;SDS011;4111;50.972;7.072;2023-05-20T08:18:47;3.80;;;3.23;;
8139;SDS011;4111;50.972;7.072;2023-05-20T08:21:14;3.17;;;2.87;;
8139;SDS011;4111;50.972;7.072;2023-05-20T08:23:40;4.13;;;3.07;;
8139;SDS011;4111;50.972;7.072;2023-05-20T08:26:07;5.00;;;2.50;;
8139;SDS011;4111;50.972;7.072;2023-05-20T08:28:34;2.87;;;2.67;;
8139;SDS011;4111;50.972;7.072;2023-05-20T08:31:03;3.53;;;3.17;;
8139;SDS011;4111;50.972;7.072;2023-05-20T08:33:29;3.50;;;3.20;;
8139;SDS011;4111;50.972;7.072;2023-05-20T08:35:56;5.03;;;3.30;;
8139;SDS011;4111;50.972;7.072;2023-05-20T08:38:22;3.67;;;3.07;;
8139;SDS011;4111;50.972;7.072;2023-05-20T08:40:55;3.83;;;3.23;;
8139;SDS011;4111;50.972;7.072;2023-05-20T08:43:23;4.13;;;3.03;;
8139;SDS011;4111;50.972;7.072;2023-05-20T08:45:50;3.00;;;2.80;;
8139;SDS011;4111;50.972;7.072;2023-05-20T08:48:18;6.13;;;3.03;;
8139;SDS011;4111;50.972;7.072;2023-05-20T08:50:49;2.90;;;2.70;;
8139;SDS011;4111;50.972;7.072;2023-05-20T08:53:17;3.20;;;2.87;;
8139;SDS011;4111;50.972;7.072;2023-05-20T08:55:46;3.40;;;2.67;;
8139;SDS011;4111;50.972;7.072;2023-05-20T08:58:18;3.23;;;2.93;;
8139;SDS011;4111;50.972;7.072;2023-05-20T09:00:46;3.17;;;2.90;;
8139;SDS011;4111;50.972;7.072;2023-05-20T09:03:12;4.00;;;2.80;;
8139;SDS011;4111;50.972;7.072;2023-05-20T09:05:39;5.20;;;3.00;;
8139;SDS011;4111;50.972;7.072;2023-05-20T09:08:06;5.97;;;3.00;;
8139;SDS011;4111;50.972;7.072;2023-05-20T09:10:35;3.03;;;2.70;;
8139;SDS011;4111;50.972;7.072;2023-05-20T09:13:05;2.87;;;2.67;;
8139;SDS011;4111;50.972;7.072;2023-05-20T09:15:32;3.20;;;2.90;;
8139;SDS011;4111;50.972;7.072;2023-05-20T09:18:01;4.20;;;2.63;;
8139;SDS011;4111;50.972;7.072;2023-05-20T09:20:29;4.47;;;2.80;;
8139;SDS011;4111;50.972;7.072;2023-05-20T09:22:58;3.10;;;2.83;;
8139;SDS011;4111;50.972;7.072;2023-05-20T09:25:30;3.30;;;3.00;;
8139;SDS011;4111;50.972;7.072;2023-05-20T09:27:57;4.47;;;3.10;;
8139;SDS011;4111;50.972;7.072;2023-05-20T09:30:24;4.17;;;3.00;;
8139;SDS011;4111;50.972;7.072;2023-05-20T09:32:54;3.47;;;3.17;;
8139;SDS011;4111;50.972;7.072;2023-05-20T09:35:22;3.00;;;2.67;;
8139;SDS011;4111;50.972;7.072;2023-05-20T09:37:53;2.93;;;2.67;;
8139;SDS011;4111;50.972;7.072;2023-05-20T09:40:27;5.53;;;2.80;;
8139;SDS011;4111;50.972;7.072;2023-05-20T09:43:01;2.87;;;2.67;;
8139;SDS011;4111;50.972;7.072;2023-05-20T09:45:29;2.90;;;2.60;;
8139;SDS011;4111;50.972;7.072;2023-05-20T09:47:56;2.77;;;2.57;;
8139;SDS011;4111;50.972;7.072;2023-05-20T09:50:23;2.97;;;2.67;;
8139;SDS011;4111;50.972;7.072;2023-05-20T09:52:51;2.90;;;2.70;;
8139;SDS011;4111;50.972;7.072;2023-05-20T09:55:18;4.33;;;2.60;;
8139;SDS011;4111;50.972;7.072;2023-05-20T09:57:46;3.37;;;3.07;;
8139;SDS011;4111;50.972;7.072;2023-05-20T10:00:14;6.17;;;2.40;;
8139;SDS011;4111;50.972;7.072;2023-05-20T10:02:46;3.43;;;2.70;;
8139;SDS011;4111;50.972;7.072;2023-05-20T10:05:20;3.00;;;2.70;;
8139;SDS011;4111;50.972;7.072;2023-05-20T10:08:03;3.77;;;2.67;;
8139;SDS011;4111;50.972;7.072;2023-05-20T10:13:37;3.13;;;2.87;;
8139;SDS011;4111;50.972;7.072;2023-05-20T10:19:11;3.33;;;2.73;;
8139;SDS011;4111;50.972;7.072;2023-05-20T10:21:55;2.63;;;2.43;;
8139;SDS011;4111;50.972;7.072;2023-05-20T10:24:38;2.90;;;2.67;;
8139;SDS011;4111;50.972;7.072;2023-05-20T10:27:07;3.13;;;2.70;;
8139;SDS011;4111;50.972;7.072;2023-05-20T10:29:42;3.67;;;2.80;;
8139;SDS011;4111;50.972;7.072;2023-05-20T10:32:27;3.30;;;3.00;;
8139;SDS011;4111;50.972;7.072;2023-05-20T10:35:01;3.20;;;2.90;;
8139;SDS011;4111;50.972;7.072;2023-05-20T10:37:31;3.13;;;2.70;;
8139;SDS011;4111;50.972;7.072;2023-05-20T10:40:04;3.30;;;3.00;;
8139;SDS011;4111;50.972;7.072;2023-05-20T10:42:41;4.50;;;3.10;;
8139;SDS011;4111;50.972;7.072;2023-05-20T10:45:08;3.30;;;3.10;;
8139;SDS011;4111;50.972;7.072;2023-05-20T10:47:35;3.30;;;2.70;;
8139;SDS011;4111;50.972;7.072;2023-05-20T10:50:02;3.53;;;3.10;;
8139;SDS011;4111;50.972;7.072;2023-05-20T10:52:33;3.77;;;3.40;;
8139;SDS011;4111;50.972;7.072;2023-05-20T10:55:02;3.33;;;3.03;;
8139;SDS011;4111;50.972;7.072;2023-05-20T10:57:30;4.60;;;2.50;;
8139;SDS011;4111;50.972;7.072;2023-05-20T10:59:57;3.57;;;3.27;;
8139;SDS011;4111;50.972;7.072;2023-05-20T11:02:24;4.73;;;3.30;;
8139;SDS011;4111;50.972;7.072;2023-05-20T11:04:56;3.33;;;3.00;;
8139;SDS011;4111;50.972;7.072;2023-05-20T11:07:26;3.57;;;3.27;;
8139;SDS011;4111;50.972;7.072;2023-05-20T11:09:54;3.97;;;3.57;;
8139;SDS011;4111;50.972;7.072;2023-05-20T11:12:22;4.30;;;3.27;;
8139;SDS011;4111;50.972;7.072;2023-05-20T11:14:49;3.57;;;3.27;;
8139;SDS011;4111;50.972;7.072;2023-05-20T11:17:17;6.67;;;2.97;;
8139;SDS011;4111;50.972;7.072;2023-05-20T11:19:45;4.03;;;3.30;;
8139;SDS011;4111;50.972;7.072;2023-05-20T11:22:13;3.60;;;3.30;;
8139;SDS011;4111;50.972;7.072;2023-05-20T11:24:39;3.27;;;3.03;;
8139;SDS011;4111;50.972;7.072;2023-05-20T11:27:06;8.23;;;3.70;;
8139;SDS011;4111;50.972;7.072;2023-05-20T11:29:33;3.83;;;3.43;;
8139;SDS011;4111;50.972;7.072;2023-05-20T11:32:00;4.07;;;3.20;;
8139;SDS011;4111;50.972;7.072;2023-05-20T11:34:33;3.80;;;3.40;;
8139;SDS011;4111;50.972;7.072;2023-05-20T11:37:07;3.50;;;3.20;;
8139;SDS011;4111;50.972;7.072;2023-05-20T11:39:35;3.57;;;3.27;;
8139;SDS011;4111;50.972;7.072;2023-05-20T11:42:02;4.47;;;3.30;;
8139;SDS011;4111;50.972;7.072;2023-05-20T11:44:29;3.50;;;3.20;;
8139;SDS011;4111;50.972;7.072;2023-05-20T11:47:01;5.50;;;3.87;;
8139;SDS011;4111;50.972;7.072;2023-05-20T11:49:28;3.60;;;3.07;;
8139;SDS011;4111;50.972;7.072;2023-05-20T11:51:56;7.13;;;3.77;;
8139;SDS011;4111;50.972;7.072;2023-05-20T11:54:22;7.10;;;3.87;;
8139;SDS011;4111;50.972;7.072;2023-05-20T11:56:49;3.90;;;3.60;;
8139;SDS011;4111;50.972;7.072;2023-05-20T11:59:16;3.43;;;3.13;;
8139;SDS011;4111;50.972;7.072;2023-05-20T12:01:43;4.70;;;3.60;;
8139;SDS011;4111;50.972;7.072;2023-05-20T12:04:11;3.73;;;3.37;;
8139;SDS011;4111;50.972;7.072;2023-05-20T12:06:41;4.83;;;3.63;;
8139;SDS011;4111;50.972;7.072;2023-05-20T12:09:09;3.93;;;3.63;;
8139;SDS011;4111;50.972;7.072;2023-05-20T12:11:36;3.90;;;3.07;;
8139;SDS011;4111;50.972;7.072;2023-05-20T12:14:06;4.60;;;3.40;;
8139;SDS011;4111;50.972;7.072;2023-05-20T12:16:34;3.90;;;3.60;;
8139;SDS011;4111;50.972;7.072;2023-05-20T12:19:01;3.73;;;3.30;;
8139;SDS011;4111;50.972;7.072;2023-05-20T12:21:28;4.57;;;4.00;;
8139;SDS011;4111;50.972;7.072;2023-05-20T12:23:57;3.77;;;3.47;;
8139;SDS011;4111;50.972;7.072;2023-05-20T12:26:25;3.70;;;3.40;;
8139;SDS011;4111;50.972;7.072;2023-05-20T12:28:52;3.90;;;3.50;;
8139;SDS011;4111;50.972;7.072;2023-05-20T12:31:19;3.97;;;3.67;;
8139;SDS011;4111;50.972;7.072;2023-05-20T12:33:46;4.50;;;3.97;;
8139;SDS011;4111;50.972;7.072;2023-05-20T12:36:13;7.93;;;3.63;;
8139;SDS011;4111;50.972;7.072;2023-05-20T12:38:39;4.40;;;3.70;;
8139;SDS011;4111;50.972;7.072;2023-05-20T12:41:06;5.13;;;3.80;;
8139;SDS011;4111;50.972;7.072;2023-05-20T12:43:34;3.80;;;3.50;;
8139;SDS011;4111;50.972;7.072;2023-05-20T12:46:02;3.73;;;3.43;;
8139;SDS011;4111;50.972;7.072;2023-05-20T12:48:28;6.63;;;3.67;;
8139;SDS011;4111;50.972;7.072;2023-05-20T12:50:55;3.47;;;3.17;;
8139;SDS011;4111;50.972;7.072;2023-05-20T12:53:21;5.13;;;3.80;;
8139;SDS011;4111;50.972;7.072;2023-05-20T12:55:48;3.87;;;3.53;;
8139;SDS011;4111;50.972;7.072;2023-05-20T12:58:14;3.80;;;3.37;;
8139;SDS011;4111;50.972;7.072;2023-05-20T13:00:41;3.50;;;3.20;;
8139;SDS011;4111;50.972;7.072;2023-05-20T13:03:08;5.50;;;3.37;;
8139;SDS011;4111;50.972;7.072;2023-05-20T13:05:35;3.63;;;3.20;;
8139;SDS011;4111;50.972;7.072;2023-05-20T13:08:01;5.57;;;3.53;;
8139;SDS011;4111;50.972;7.072;2023-05-20T13:10:28;5.77;;;3.70;;
8139;SDS011;4111;50.972;7.072;2023-05-20T13:12:54;4.57;;;3.50;;
8139;SDS011;4111;50.972;7.072;2023-05-20T13:15:21;3.80;;;3.50;;
8139;SDS011;4111;50.972;7.072;2023-05-20T13:17:47;4.30;;;3.50;;
8139;SDS011;4111;50.972;7.072;2023-05-20T13:20:14;3.50;;;3.20;;
8139;SDS011;4111;50.972;7.072;2023-05-20T13:22:43;5.33;;;3.70;;
8139;SDS011;4111;50.972;7.072;2023-05-20T13:25:09;5.27;;;3.90;;
8139;SDS011;4111;50.972;7.072;2023-05-20T13:27:36;5.80;;;3.50;;
8139;SDS011;4111;50.972;7.072;2023-05-20T13:30:02;4.43;;;4.13;;
8139;SDS011;4111;50.972;7.072;2023-05-20T13:32:31;5.05;;;3.78;;
8139;SDS011;4111;50.972;7.072;2023-05-20T13:34:57;4.00;;;3.70;;
8139;SDS011;4111;50.972;7.072;2023-05-20T13:37:24;4.18;;;3.78;;
8139;SDS011;4111;50.972;7.072;2023-05-20T13:39:51;4.50;;;3.67;;
8139;SDS011;4111;50.972;7.072;2023-05-20T13:42:18;4.77;;;3.27;;
8139;SDS011;4111;50.972;7.072;2023-05-20T13:44:44;3.73;;;3.43;;
8139;SDS011;4111;50.972;7.072;2023-05-20T13:47:11;6.27;;;3.50;;
8139;SDS011;4111;50.972;7.072;2023-05-20T13:49:38;6.10;;;3.73;;
8139;SDS011;4111;50.972;7.072;2023-05-20T13:52:04;3.47;;;3.17;;
8139;SDS011;4111;50.972;7.072;2023-05-20T13:54:31;3.87;;;3.47;;
8139;SDS011;4111;50.972;7.072;2023-05-20T13:56:57;3.10;;;2.90;;
8139;SDS011;4111;50.972;7.072;2023-05-20T13:59:24;4.43;;;3.17;;
8139;SDS011;4111;50.972;7.072;2023-05-20T14:01:52;3.60;;;3.30;;
8139;SDS011;4111;50.972;7.072;2023-05-20T14:04:18;3.92;;;3.35;;
8139;SDS011;4111;50.972;7.072;2023-05-20T14:06:45;3.87;;;3.47;;
8139;SDS011;4111;50.972;7.072;2023-05-20T14:09:11;3.87;;;3.20;;
8139;SDS011;4111;50.972;7.072;2023-05-20T14:11:38;3.97;;;3.60;;
8139;SDS011;4111;50.972;7.072;2023-05-20T14:14:04;8.37;;;3.87;;
8139;SDS011;4111;50.972;7.072;2023-05-20T14:16:31;3.60;;;3.30;;
8139;SDS011;4111;50.972;7.072;2023-05-20T14:18:58;4.60;;;3.80;;
8139;SDS011;4111;50.972;7.072;2023-05-20T14:21:25;6.77;;;3.10;;
8139;SDS011;4111;50.972;7.072;2023-05-20T14:23:51;4.20;;;3.63;;
8139;SDS011;4111;50.972;7.072;2023-05-20T14:26:18;3.60;;;3.30;;
8139;SDS011;4111;50.972;7.072;2023-05-20T14:28:45;3.47;;;3.17;;
8139;SDS011;4111;50.972;7.072;2023-05-20T14:31:11;4.60;;;3.07;;
8139;SDS011;4111;50.972;7.072;2023-05-20T14:33:38;5.50;;;3.50;;
8139;SDS011;4111;50.972;7.072;2023-05-20T14:36:04;3.57;;;3.27;;
8139;SDS011;4111;50.972;7.072;2023-05-20T14:38:31;5.60;;;3.47;;
8139;SDS011;4111;50.972;7.072;2023-05-20T14:40:57;5.03;;;3.50;;
8139;SDS011;4111;50.972;7.072;2023-05-20T14:43:24;3.60;;;3.33;;
8139;SDS011;4111;50.972;7.072;2023-05-20T14:45:51;3.60;;;3.20;;
8139;SDS011;4111;50.972;7.072;2023-05-20T14:48:17;7.13;;;3.23;;
8139;SDS011;4111;50.972;7.072;2023-05-20T14:50:44;3.83;;;3.53;;
8139;SDS011;4111;50.972;7.072;2023-05-20T14:53:12;3.67;;;3.37;;
8139;SDS011;4111;50.972;7.072;2023-05-20T14:55:38;3.63;;;3.33;;
8139;SDS011;4111;50.972;7.072;2023-05-20T14:58:05;4.17;;;3.30;;
8139;SDS011;4111;50.972;7.072;2023-05-20T15:00:31;4.90;;;3.63;;
8139;SDS011;4111;50.972;7.072;2023-05-20T15:02:59;3.77;;;3.40;;
8139;SDS011;4111;50.972;7.072;2023-05-20T15:05:25;3.60;;;3.30;;
8139;SDS011;4111;50.972;7.072;2023-05-20T15:07:52;3.30;;;3.00;;
8139;SDS011;4111;50.972;7.072;2023-05-20T15:10:18;3.37;;;3.07;;
8139;SDS011;4111;50.972;7.072;2023-05-20T15:12:45;3.87;;;3.17;;
8139;SDS011;4111;50.972;7.072;2023-05-20T15:15:12;2.93;;;2.73;;
8139;SDS011;4111;50.972;7.072;2023-05-20T15:17:39;2.93;;;2.73;;
8139;SDS011;4111;50.972;7.072;2023-05-20T15:20:06;4.00;;;3.30;;
8139;SDS011;4111;50.972;7.072;2023-05-20T15:22:33;4.70;;;3.23;;
8139;SDS011;4111;50.972;7.072;2023-05-20T15:24:59;3.90;;;3.10;;